sensor_id;sensor_type;location;lat;lon;timestamp;P1;durP1;ratioP1;P2;durP2;ratioP2
63438;SDS011;49567;48.958;8.294;2023-05-16T00:00:12;12.80;;;9.27;;
63438;SDS011;49567;48.958;8.294;2023-05-16T00:02:38;12.15;;;9.65;;
63438;SDS011;49567;48.958;8.294;2023-05-16T00:05:04;10.75;;;9.48;;
63438;SDS011;49567;48.958;8.294;2023-05-16T00:07:31;11.70;;;10.50;;
63438;SDS011;49567;48.958;8.294;2023-05-16T00:09:57;12.40;;;9.88;;
63438;SDS011;49567;48.958;8.294;2023-05-16T00:12:23;11.45;;;10.10;;
63438;SDS011;49567;48.958;8.294;2023-05-16T00:14:48;10.43;;;9.43;;
63438;SDS011;49567;48.958;8.294;2023-05-16T00:17:15;11.63;;;9.75;;
63438;SDS011;49567;48.958;8.294;2023-05-16T00:19:43;12.75;;;10.43;;
63438;SDS011;49567;48.958;8.294;2023-05-16T00:22:11;11.52;;;10.43;;
63438;SDS011;49567;48.958;8.294;2023-05-16T00:24:37;12.20;;;10.50;;
63438;SDS011;49567;48.958;8.294;2023-05-16T00:27:02;11.13;;;9.93;;
63438;SDS011;49567;48.958;8.294;2023-05-16T00:29:28;13.48;;;10.90;;
63438;SDS011;49567;48.958;8.294;2023-05-16T00:31:55;11.55;;;10.40;;
63438;SDS011;49567;48.958;8.294;2023-05-16T00:34:20;12.53;;;11.33;;
63438;SDS011;49567;48.958;8.294;2023-05-16T00:36:46;12.40;;;10.17;;
63438;SDS011;49567;48.958;8.294;2023-05-16T00:39:12;10.90;;;9.80;;
63438;SDS011;49567;48.958;8.294;2023-05-16T00:41:37;14.40;;;10.43;;
63438;SDS011;49567;48.958;8.294;2023-05-16T00:44:03;12.35;;;11.05;;
63438;SDS011;49567;48.958;8.294;2023-05-16T00:46:28;12.50;;;11.17;;
63438;SDS011;49567;48.958;8.294;2023-05-16T00:48:53;10.97;;;9.87;;
63438;SDS011;49567;48.958;8.294;2023-05-16T00:51:19;16.07;;;10.97;;
63438;SDS011;49567;48.958;8.294;2023-05-16T00:53:44;12.70;;;11.50;;
63438;SDS011;49567;48.958;8.294;2023-05-16T00:56:10;14.02;;;10.90;;
63438;SDS011;49567;48.958;8.294;2023-05-16T00:58:35;13.13;;;10.93;;
63438;SDS011;49567;48.958;8.294;2023-05-16T01:01:01;16.45;;;10.95;;
63438;SDS011;49567;48.958;8.294;2023-05-16T01:03:30;11.00;;;10.00;;
63438;SDS011;49567;48.958;8.294;2023-05-16T01:05:56;10.87;;;9.57;;
63438;SDS011;49567;48.958;8.294;2023-05-16T01:08:21;12.10;;;10.80;;
63438;SDS011;49567;48.958;8.294;2023-05-16T01:10:49;11.68;;;10.30;;
63438;SDS011;49567;48.958;8.294;2023-05-16T01:18:41;10.65;;;9.55;;
63438;SDS011;49567;48.958;8.294;2023-05-16T01:21:15;10.90;;;9.80;;
63438;SDS011;49567;48.958;8.294;2023-05-16T01:26:37;11.57;;;10.43;;
63438;SDS011;49567;48.958;8.294;2023-05-16T01:29:03;13.77;;;9.70;;
63438;SDS011;49567;48.958;8.294;2023-05-16T01:31:30;12.37;;;9.77;;
63438;SDS011;49567;48.958;8.294;2023-05-16T01:33:55;12.33;;;10.30;;
63438;SDS011;49567;48.958;8.294;2023-05-16T01:39:32;11.38;;;10.18;;
63438;SDS011;49567;48.958;8.294;2023-05-16T01:42:15;11.70;;;10.50;;
63438;SDS011;49567;48.958;8.294;2023-05-16T01:45:25;12.25;;;11.00;;
63438;SDS011;49567;48.958;8.294;2023-05-16T01:47:39;11.60;;;10.50;;
63438;SDS011;49567;48.958;8.294;2023-05-16T01:50:09;14.25;;;10.73;;
63438;SDS011;49567;48.958;8.294;2023-05-16T01:52:45;12.95;;;11.23;;
63438;SDS011;49567;48.958;8.294;2023-05-16T01:55:14;16.17;;;13.02;;
63438;SDS011;49567;48.958;8.294;2023-05-16T01:57:45;14.43;;;12.93;;
63438;SDS011;49567;48.958;8.294;2023-05-16T02:00:13;14.77;;;12.77;;
63438;SDS011;49567;48.958;8.294;2023-05-16T02:02:39;15.88;;;13.32;;
63438;SDS011;49567;48.958;8.294;2023-05-16T02:05:04;17.20;;;14.87;;
63438;SDS011;49567;48.958;8.294;2023-05-16T02:07:30;20.27;;;14.38;;
63438;SDS011;49567;48.958;8.294;2023-05-16T02:09:55;18.03;;;14.80;;
63438;SDS011;49567;48.958;8.294;2023-05-16T02:12:21;17.90;;;13.97;;
63438;SDS011;49567;48.958;8.294;2023-05-16T02:14:46;17.27;;;14.07;;
63438;SDS011;49567;48.958;8.294;2023-05-16T02:17:11;18.27;;;14.90;;
63438;SDS011;49567;48.958;8.294;2023-05-16T02:19:36;18.90;;;15.07;;
63438;SDS011;49567;48.958;8.294;2023-05-16T02:22:02;16.90;;;14.45;;
63438;SDS011;49567;48.958;8.294;2023-05-16T02:24:27;17.03;;;14.67;;
63438;SDS011;49567;48.958;8.294;2023-05-16T02:26:52;21.57;;;15.87;;
63438;SDS011;49567;48.958;8.294;2023-05-16T02:29:17;22.60;;;16.23;;
63438;SDS011;49567;48.958;8.294;2023-05-16T02:31:43;18.63;;;15.37;;
63438;SDS011;49567;48.958;8.294;2023-05-16T02:34:08;20.53;;;17.67;;
63438;SDS011;49567;48.958;8.294;2023-05-16T02:36:34;21.95;;;17.55;;
63438;SDS011;49567;48.958;8.294;2023-05-16T02:39:00;23.02;;;17.65;;
63438;SDS011;49567;48.958;8.294;2023-05-16T02:41:27;21.55;;;17.25;;
63438;SDS011;49567;48.958;8.294;2023-05-16T02:43:53;23.15;;;16.88;;
63438;SDS011;49567;48.958;8.294;2023-05-16T02:46:22;20.33;;;16.80;;
63438;SDS011;49567;48.958;8.294;2023-05-16T02:48:49;21.40;;;17.47;;
63438;SDS011;49567;48.958;8.294;2023-05-16T02:51:15;23.33;;;18.48;;
63438;SDS011;49567;48.958;8.294;2023-05-16T02:53:40;22.57;;;17.60;;
63438;SDS011;49567;48.958;8.294;2023-05-16T02:56:06;22.70;;;17.35;;
63438;SDS011;49567;48.958;8.294;2023-05-16T02:58:31;24.73;;;18.00;;
63438;SDS011;49567;48.958;8.294;2023-05-16T03:00:57;22.52;;;16.80;;
63438;SDS011;49567;48.958;8.294;2023-05-16T03:03:22;23.03;;;17.53;;
63438;SDS011;49567;48.958;8.294;2023-05-16T03:05:48;19.75;;;17.52;;
63438;SDS011;49567;48.958;8.294;2023-05-16T03:08:14;22.13;;;17.77;;
63438;SDS011;49567;48.958;8.294;2023-05-16T03:10:39;21.23;;;17.07;;
63438;SDS011;49567;48.958;8.294;2023-05-16T03:13:04;20.60;;;16.73;;
63438;SDS011;49567;48.958;8.294;2023-05-16T03:15:29;19.87;;;17.47;;
63438;SDS011;49567;48.958;8.294;2023-05-16T03:17:55;22.33;;;16.83;;
63438;SDS011;49567;48.958;8.294;2023-05-16T03:20:20;19.50;;;16.67;;
63438;SDS011;49567;48.958;8.294;2023-05-16T03:22:46;21.23;;;17.20;;
63438;SDS011;49567;48.958;8.294;2023-05-16T03:25:11;23.07;;;17.80;;
63438;SDS011;49567;48.958;8.294;2023-05-16T03:27:36;23.23;;;17.77;;
63438;SDS011;49567;48.958;8.294;2023-05-16T03:30:01;21.75;;;16.90;;
63438;SDS011;49567;48.958;8.294;2023-05-16T03:32:27;25.57;;;18.20;;
63438;SDS011;49567;48.958;8.294;2023-05-16T03:34:52;22.97;;;17.63;;
63438;SDS011;49567;48.958;8.294;2023-05-16T03:37:17;22.57;;;17.90;;
63438;SDS011;49567;48.958;8.294;2023-05-16T03:39:42;23.50;;;18.23;;
63438;SDS011;49567;48.958;8.294;2023-05-16T03:42:08;25.13;;;17.33;;
63438;SDS011;49567;48.958;8.294;2023-05-16T03:44:33;21.95;;;16.92;;
63438;SDS011;49567;48.958;8.294;2023-05-16T03:46:59;22.60;;;17.20;;
63438;SDS011;49567;48.958;8.294;2023-05-16T03:49:24;25.87;;;18.37;;
63438;SDS011;49567;48.958;8.294;2023-05-16T03:51:53;24.70;;;17.15;;
63438;SDS011;49567;48.958;8.294;2023-05-16T03:54:19;23.63;;;16.67;;
63438;SDS011;49567;48.958;8.294;2023-05-16T03:56:45;22.20;;;17.10;;
63438;SDS011;49567;48.958;8.294;2023-05-16T03:59:10;22.90;;;16.63;;
63438;SDS011;49567;48.958;8.294;2023-05-16T04:01:35;22.10;;;17.23;;
63438;SDS011;49567;48.958;8.294;2023-05-16T04:04:00;22.73;;;17.07;;
63438;SDS011;49567;48.958;8.294;2023-05-16T04:06:26;23.43;;;16.70;;
63438;SDS011;49567;48.958;8.294;2023-05-16T04:08:51;21.20;;;16.47;;
63438;SDS011;49567;48.958;8.294;2023-05-16T04:11:16;20.90;;;16.73;;
63438;SDS011;49567;48.958;8.294;2023-05-16T04:13:41;24.40;;;16.70;;
63438;SDS011;49567;48.958;8.294;2023-05-16T04:16:06;21.77;;;16.80;;
63438;SDS011;49567;48.958;8.294;2023-05-16T04:18:32;24.07;;;16.70;;
63438;SDS011;49567;48.958;8.294;2023-05-16T04:20:57;23.05;;;17.58;;
63438;SDS011;49567;48.958;8.294;2023-05-16T04:23:22;20.83;;;16.30;;
63438;SDS011;49567;48.958;8.294;2023-05-16T04:25:48;20.80;;;15.87;;
63438;SDS011;49567;48.958;8.294;2023-05-16T04:28:14;22.95;;;16.33;;
63438;SDS011;49567;48.958;8.294;2023-05-16T04:30:40;20.70;;;16.25;;
63438;SDS011;49567;48.958;8.294;2023-05-16T04:33:05;22.37;;;15.90;;
63438;SDS011;49567;48.958;8.294;2023-05-16T04:35:31;22.57;;;16.20;;
63438;SDS011;49567;48.958;8.294;2023-05-16T04:37:57;20.10;;;16.33;;
63438;SDS011;49567;48.958;8.294;2023-05-16T04:40:22;25.23;;;17.57;;
63438;SDS011;49567;48.958;8.294;2023-05-16T04:42:49;21.95;;;15.30;;
63438;SDS011;49567;48.958;8.294;2023-05-16T04:45:14;22.07;;;16.10;;
63438;SDS011;49567;48.958;8.294;2023-05-16T04:47:40;22.33;;;15.93;;
63438;SDS011;49567;48.958;8.294;2023-05-16T04:50:06;20.88;;;15.40;;
63438;SDS011;49567;48.958;8.294;2023-05-16T04:52:35;24.63;;;15.65;;
63438;SDS011;49567;48.958;8.294;2023-05-16T04:55:02;19.08;;;15.10;;
63438;SDS011;49567;48.958;8.294;2023-05-16T04:57:28;21.17;;;15.55;;
63438;SDS011;49567;48.958;8.294;2023-05-16T04:59:53;19.77;;;14.70;;
63438;SDS011;49567;48.958;8.294;2023-05-16T05:02:19;21.33;;;15.17;;
63438;SDS011;49567;48.958;8.294;2023-05-16T05:04:44;22.80;;;15.50;;
63438;SDS011;49567;48.958;8.294;2023-05-16T05:07:10;20.17;;;15.32;;
63438;SDS011;49567;48.958;8.294;2023-05-16T05:09:35;20.97;;;15.53;;
63438;SDS011;49567;48.958;8.294;2023-05-16T05:12:00;17.85;;;13.85;;
63438;SDS011;49567;48.958;8.294;2023-05-16T05:14:26;21.23;;;14.60;;
63438;SDS011;49567;48.958;8.294;2023-05-16T05:16:51;22.20;;;14.33;;
63438;SDS011;49567;48.958;8.294;2023-05-16T05:19:16;23.90;;;14.02;;
63438;SDS011;49567;48.958;8.294;2023-05-16T05:21:41;18.93;;;14.07;;
63438;SDS011;49567;48.958;8.294;2023-05-16T05:24:07;19.53;;;14.83;;
63438;SDS011;49567;48.958;8.294;2023-05-16T05:26:32;21.27;;;13.93;;
63438;SDS011;49567;48.958;8.294;2023-05-16T05:29:00;18.37;;;13.77;;
63438;SDS011;49567;48.958;8.294;2023-05-16T05:31:26;20.07;;;14.23;;
63438;SDS011;49567;48.958;8.294;2023-05-16T05:33:51;20.77;;;14.07;;
63438;SDS011;49567;48.958;8.294;2023-05-16T05:36:17;19.27;;;13.23;;
63438;SDS011;49567;48.958;8.294;2023-05-16T05:38:42;16.80;;;13.80;;
63438;SDS011;49567;48.958;8.294;2023-05-16T05:41:07;18.93;;;13.63;;
63438;SDS011;49567;48.958;8.294;2023-05-16T05:43:32;19.30;;;13.83;;
63438;SDS011;49567;48.958;8.294;2023-05-16T05:45:58;23.80;;;14.07;;
63438;SDS011;49567;48.958;8.294;2023-05-16T05:48:23;19.37;;;13.57;;
63438;SDS011;49567;48.958;8.294;2023-05-16T05:50:49;20.27;;;13.60;;
63438;SDS011;49567;48.958;8.294;2023-05-16T05:53:14;18.07;;;13.93;;
63438;SDS011;49567;48.958;8.294;2023-05-16T05:55:40;21.20;;;14.20;;
63438;SDS011;49567;48.958;8.294;2023-05-16T05:58:14;23.83;;;14.25;;
63438;SDS011;49567;48.958;8.294;2023-05-16T06:00:42;21.37;;;14.27;;
63438;SDS011;49567;48.958;8.294;2023-05-16T06:03:07;18.77;;;12.70;;
63438;SDS011;49567;48.958;8.294;2023-05-16T06:05:32;19.33;;;13.73;;
63438;SDS011;49567;48.958;8.294;2023-05-16T06:07:58;21.27;;;12.97;;
63438;SDS011;49567;48.958;8.294;2023-05-16T06:10:23;17.73;;;13.23;;
63438;SDS011;49567;48.958;8.294;2023-05-16T06:12:48;20.07;;;13.27;;
63438;SDS011;49567;48.958;8.294;2023-05-16T06:15:14;21.07;;;13.13;;
63438;SDS011;49567;48.958;8.294;2023-05-16T06:17:39;18.37;;;13.50;;
63438;SDS011;49567;48.958;8.294;2023-05-16T06:20:06;19.77;;;12.97;;
63438;SDS011;49567;48.958;8.294;2023-05-16T06:22:32;21.15;;;12.23;;
63438;SDS011;49567;48.958;8.294;2023-05-16T06:24:57;15.83;;;11.50;;
63438;SDS011;49567;48.958;8.294;2023-05-16T06:27:22;15.23;;;10.80;;
63438;SDS011;49567;48.958;8.294;2023-05-16T06:29:48;15.13;;;10.43;;
63438;SDS011;49567;48.958;8.294;2023-05-16T06:32:13;17.50;;;11.77;;
63438;SDS011;49567;48.958;8.294;2023-05-16T06:34:41;17.23;;;10.35;;
63438;SDS011;49567;48.958;8.294;2023-05-16T06:37:09;17.90;;;11.43;;
63438;SDS011;49567;48.958;8.294;2023-05-16T06:39:35;14.27;;;9.73;;
63438;SDS011;49567;48.958;8.294;2023-05-16T06:42:00;13.60;;;9.97;;
63438;SDS011;49567;48.958;8.294;2023-05-16T06:44:25;13.75;;;9.55;;
63438;SDS011;49567;48.958;8.294;2023-05-16T06:46:51;14.20;;;9.30;;
63438;SDS011;49567;48.958;8.294;2023-05-16T06:49:16;11.73;;;8.60;;
63438;SDS011;49567;48.958;8.294;2023-05-16T06:51:42;10.93;;;7.83;;
63438;SDS011;49567;48.958;8.294;2023-05-16T06:54:07;11.18;;;8.05;;
63438;SDS011;49567;48.958;8.294;2023-05-16T06:56:32;11.73;;;7.47;;
63438;SDS011;49567;48.958;8.294;2023-05-16T06:58:58;11.40;;;7.23;;
63438;SDS011;49567;48.958;8.294;2023-05-16T07:01:25;8.88;;;6.60;;
63438;SDS011;49567;48.958;8.294;2023-05-16T07:03:53;6.65;;;5.00;;
63438;SDS011;49567;48.958;8.294;2023-05-16T07:06:18;5.73;;;4.10;;
63438;SDS011;49567;48.958;8.294;2023-05-16T07:08:43;5.77;;;4.30;;
63438;SDS011;49567;48.958;8.294;2023-05-16T07:11:09;6.77;;;4.03;;
63438;SDS011;49567;48.958;8.294;2023-05-16T07:13:35;3.50;;;3.20;;
63438;SDS011;49567;48.958;8.294;2023-05-16T07:16:01;4.63;;;3.67;;
63438;SDS011;49567;48.958;8.294;2023-05-16T07:18:26;4.37;;;3.17;;
63438;SDS011;49567;48.958;8.294;2023-05-16T07:20:52;3.13;;;2.75;;
63438;SDS011;49567;48.958;8.294;2023-05-16T07:23:17;3.50;;;2.70;;
63438;SDS011;49567;48.958;8.294;2023-05-16T07:25:43;4.40;;;2.23;;
63438;SDS011;49567;48.958;8.294;2023-05-16T07:28:08;3.33;;;2.10;;
63438;SDS011;49567;48.958;8.294;2023-05-16T07:30:33;2.43;;;1.97;;
63438;SDS011;49567;48.958;8.294;2023-05-16T07:32:58;2.17;;;1.90;;
63438;SDS011;49567;48.958;8.294;2023-05-16T07:35:24;1.50;;;1.40;;
63438;SDS011;49567;48.958;8.294;2023-05-16T07:37:49;1.53;;;1.43;;
63438;SDS011;49567;48.958;8.294;2023-05-16T07:40:15;1.30;;;1.20;;
63438;SDS011;49567;48.958;8.294;2023-05-16T07:42:42;0.95;;;0.95;;
63438;SDS011;49567;48.958;8.294;2023-05-16T07:45:07;1.30;;;0.93;;
63438;SDS011;49567;48.958;8.294;2023-05-16T07:47:33;1.15;;;1.02;;
63438;SDS011;49567;48.958;8.294;2023-05-16T07:49:59;0.80;;;0.80;;
63438;SDS011;49567;48.958;8.294;2023-05-16T07:52:24;1.90;;;0.87;;
63438;SDS011;49567;48.958;8.294;2023-05-16T07:54:49;0.70;;;0.70;;
63438;SDS011;49567;48.958;8.294;2023-05-16T07:57:15;1.30;;;0.70;;
63438;SDS011;49567;48.958;8.294;2023-05-16T07:59:41;0.65;;;0.60;;
63438;SDS011;49567;48.958;8.294;2023-05-16T08:02:07;0.70;;;0.70;;
63438;SDS011;49567;48.958;8.294;2023-05-16T08:04:32;1.80;;;0.70;;
63438;SDS011;49567;48.958;8.294;2023-05-16T08:06:57;0.80;;;0.80;;
63438;SDS011;49567;48.958;8.294;2023-05-16T08:09:23;0.90;;;0.68;;
63438;SDS011;49567;48.958;8.294;2023-05-16T08:11:48;0.57;;;0.57;;
63438;SDS011;49567;48.958;8.294;2023-05-16T08:14:13;1.20;;;0.50;;
63438;SDS011;49567;48.958;8.294;2023-05-16T08:16:39;1.35;;;0.55;;
63438;SDS011;49567;48.958;8.294;2023-05-16T08:19:04;0.50;;;0.50;;
63438;SDS011;49567;48.958;8.294;2023-05-16T08:21:29;0.47;;;0.40;;
63438;SDS011;49567;48.958;8.294;2023-05-16T08:23:55;0.50;;;0.50;;
63438;SDS011;49567;48.958;8.294;2023-05-16T08:26:21;0.90;;;0.50;;
63438;SDS011;49567;48.958;8.294;2023-05-16T08:28:46;4.25;;;0.65;;
63438;SDS011;49567;48.958;8.294;2023-05-16T08:31:12;0.50;;;0.50;;
63438;SDS011;49567;48.958;8.294;2023-05-16T08:33:37;3.43;;;0.60;;
63438;SDS011;49567;48.958;8.294;2023-05-16T08:36:02;0.47;;;0.40;;
63438;SDS011;49567;48.958;8.294;2023-05-16T08:38:28;2.47;;;0.50;;
63438;SDS011;49567;48.958;8.294;2023-05-16T08:40:53;0.90;;;0.50;;
63438;SDS011;49567;48.958;8.294;2023-05-16T08:43:18;0.40;;;0.40;;
63438;SDS011;49567;48.958;8.294;2023-05-16T08:45:44;0.70;;;0.30;;
63438;SDS011;49567;48.958;8.294;2023-05-16T08:48:09;1.20;;;0.50;;
63438;SDS011;49567;48.958;8.294;2023-05-16T08:50:35;0.35;;;0.35;;
63438;SDS011;49567;48.958;8.294;2023-05-16T08:53:03;0.60;;;0.60;;
63438;SDS011;49567;48.958;8.294;2023-05-16T08:55:31;0.88;;;0.50;;
63438;SDS011;49567;48.958;8.294;2023-05-16T08:57:57;0.60;;;0.60;;
63438;SDS011;49567;48.958;8.294;2023-05-16T09:00:24;0.70;;;0.70;;
63438;SDS011;49567;48.958;8.294;2023-05-16T09:02:50;0.80;;;0.60;;
63438;SDS011;49567;48.958;8.294;2023-05-16T09:05:17;0.55;;;0.55;;
63438;SDS011;49567;48.958;8.294;2023-05-16T09:07:42;0.70;;;0.70;;
63438;SDS011;49567;48.958;8.294;2023-05-16T09:10:09;0.80;;;0.50;;
63438;SDS011;49567;48.958;8.294;2023-05-16T09:12:35;0.90;;;0.70;;
63438;SDS011;49567;48.958;8.294;2023-05-16T09:15:01;1.00;;;1.00;;
63438;SDS011;49567;48.958;8.294;2023-05-16T09:17:42;0.65;;;0.65;;
63438;SDS011;49567;48.958;8.294;2023-05-16T09:20:15;2.20;;;0.52;;
63438;SDS011;49567;48.958;8.294;2023-05-16T09:22:51;1.90;;;0.70;;
63438;SDS011;49567;48.958;8.294;2023-05-16T09:25:21;0.50;;;0.50;;
63438;SDS011;49567;48.958;8.294;2023-05-16T09:27:54;0.68;;;0.68;;
63438;SDS011;49567;48.958;8.294;2023-05-16T09:30:21;0.65;;;0.65;;
63438;SDS011;49567;48.958;8.294;2023-05-16T09:32:52;0.63;;;0.63;;
63438;SDS011;49567;48.958;8.294;2023-05-16T09:35:18;0.70;;;0.57;;
63438;SDS011;49567;48.958;8.294;2023-05-16T09:37:45;0.80;;;0.50;;
63438;SDS011;49567;48.958;8.294;2023-05-16T09:40:15;0.50;;;0.50;;
63438;SDS011;49567;48.958;8.294;2023-05-16T09:42:44;2.20;;;0.50;;
63438;SDS011;49567;48.958;8.294;2023-05-16T09:45:11;0.53;;;0.53;;
63438;SDS011;49567;48.958;8.294;2023-05-16T09:47:38;1.70;;;0.50;;
63438;SDS011;49567;48.958;8.294;2023-05-16T09:50:10;0.57;;;0.53;;
63438;SDS011;49567;48.958;8.294;2023-05-16T09:52:37;0.50;;;0.50;;
63438;SDS011;49567;48.958;8.294;2023-05-16T09:55:05;0.70;;;0.40;;
63438;SDS011;49567;48.958;8.294;2023-05-16T09:57:31;0.50;;;0.50;;
63438;SDS011;49567;48.958;8.294;2023-05-16T09:59:57;0.80;;;0.80;;
63438;SDS011;49567;48.958;8.294;2023-05-16T10:02:25;1.20;;;0.40;;
63438;SDS011;49567;48.958;8.294;2023-05-16T10:04:51;1.20;;;0.23;;
63438;SDS011;49567;48.958;8.294;2023-05-16T10:07:17;1.30;;;0.43;;
63438;SDS011;49567;48.958;8.294;2023-05-16T10:09:44;2.40;;;0.30;;
63438;SDS011;49567;48.958;8.294;2023-05-16T10:12:11;0.82;;;0.30;;
63438;SDS011;49567;48.958;8.294;2023-05-16T10:14:39;0.40;;;0.40;;
63438;SDS011;49567;48.958;8.294;2023-05-16T10:17:06;0.70;;;0.45;;
63438;SDS011;49567;48.958;8.294;2023-05-16T10:19:34;0.30;;;0.13;;
63438;SDS011;49567;48.958;8.294;2023-05-16T10:22:03;2.50;;;0.43;;
63438;SDS011;49567;48.958;8.294;2023-05-16T10:24:38;0.40;;;0.40;;
63438;SDS011;49567;48.958;8.294;2023-05-16T10:27:12;1.60;;;0.40;;
63438;SDS011;49567;48.958;8.294;2023-05-16T10:29:38;0.30;;;0.27;;
63438;SDS011;49567;48.958;8.294;2023-05-16T10:32:04;0.20;;;0.20;;
63438;SDS011;49567;48.958;8.294;2023-05-16T10:34:31;1.27;;;0.27;;
63438;SDS011;49567;48.958;8.294;2023-05-16T10:36:57;0.30;;;0.20;;
63438;SDS011;49567;48.958;8.294;2023-05-16T10:39:23;2.17;;;0.30;;
63438;SDS011;49567;48.958;8.294;2023-05-16T10:41:49;0.55;;;0.30;;
63438;SDS011;49567;48.958;8.294;2023-05-16T10:44:15;1.40;;;0.40;;
63438;SDS011;49567;48.958;8.294;2023-05-16T10:46:41;0.13;;;0.13;;
63438;SDS011;49567;48.958;8.294;2023-05-16T10:49:22;1.13;;;0.23;;
63438;SDS011;49567;48.958;8.294;2023-05-16T10:52:08;0.43;;;0.30;;
63438;SDS011;49567;48.958;8.294;2023-05-16T10:54:39;0.30;;;0.30;;
63438;SDS011;49567;48.958;8.294;2023-05-16T10:57:07;0.22;;;0.20;;
63438;SDS011;49567;48.958;8.294;2023-05-16T10:59:41;3.28;;;0.25;;
63438;SDS011;49567;48.958;8.294;2023-05-16T11:02:20;1.80;;;0.20;;
63438;SDS011;49567;48.958;8.294;2023-05-16T11:04:51;1.10;;;0.60;;
63438;SDS011;49567;48.958;8.294;2023-05-16T11:07:20;0.20;;;0.20;;
63438;SDS011;49567;48.958;8.294;2023-05-16T11:10:06;1.40;;;0.63;;
63438;SDS011;49567;48.958;8.294;2023-05-16T11:12:43;1.10;;;0.30;;
63438;SDS011;49567;48.958;8.294;2023-05-16T11:15:19;0.45;;;0.30;;
63438;SDS011;49567;48.958;8.294;2023-05-16T11:17:47;0.50;;;0.50;;
63438;SDS011;49567;48.958;8.294;2023-05-16T11:20:25;0.40;;;0.25;;
63438;SDS011;49567;48.958;8.294;2023-05-16T11:23:00;0.70;;;0.20;;
63438;SDS011;49567;48.958;8.294;2023-05-16T11:25:51;0.68;;;0.30;;
63438;SDS011;49567;48.958;8.294;2023-05-16T11:28:18;1.75;;;0.20;;
63438;SDS011;49567;48.958;8.294;2023-05-16T11:30:44;0.47;;;0.40;;
63438;SDS011;49567;48.958;8.294;2023-05-16T11:33:12;3.15;;;0.47;;
63438;SDS011;49567;48.958;8.294;2023-05-16T11:35:37;0.20;;;0.10;;
63438;SDS011;49567;48.958;8.294;2023-05-16T11:38:03;2.40;;;0.30;;
63438;SDS011;49567;48.958;8.294;2023-05-16T11:40:28;3.03;;;0.90;;
63438;SDS011;49567;48.958;8.294;2023-05-16T11:42:54;0.20;;;0.20;;
63438;SDS011;49567;48.958;8.294;2023-05-16T11:45:23;1.35;;;0.35;;
63438;SDS011;49567;48.958;8.294;2023-05-16T11:47:49;2.30;;;0.40;;
63438;SDS011;49567;48.958;8.294;2023-05-16T11:50:15;0.50;;;0.30;;
63438;SDS011;49567;48.958;8.294;2023-05-16T11:52:43;0.45;;;0.30;;
63438;SDS011;49567;48.958;8.294;2023-05-16T11:55:10;2.13;;;0.30;;
63438;SDS011;49567;48.958;8.294;2023-05-16T11:57:39;0.20;;;0.20;;
63438;SDS011;49567;48.958;8.294;2023-05-16T12:00:15;0.88;;;0.60;;
63438;SDS011;49567;48.958;8.294;2023-05-16T12:02:46;0.52;;;0.50;;
63438;SDS011;49567;48.958;8.294;2023-05-16T12:05:12;1.63;;;0.30;;
63438;SDS011;49567;48.958;8.294;2023-05-16T12:07:39;0.90;;;0.38;;
63438;SDS011;49567;48.958;8.294;2023-05-16T12:10:08;1.50;;;0.70;;
63438;SDS011;49567;48.958;8.294;2023-05-16T12:12:36;0.28;;;0.28;;
63438;SDS011;49567;48.958;8.294;2023-05-16T12:15:03;0.85;;;0.68;;
63438;SDS011;49567;48.958;8.294;2023-05-16T12:17:30;1.35;;;0.50;;
63438;SDS011;49567;48.958;8.294;2023-05-16T12:19:57;1.27;;;0.50;;
63438;SDS011;49567;48.958;8.294;2023-05-16T12:22:25;2.75;;;0.50;;
63438;SDS011;49567;48.958;8.294;2023-05-16T12:24:51;1.67;;;0.43;;
63438;SDS011;49567;48.958;8.294;2023-05-16T12:27:25;0.50;;;0.50;;
63438;SDS011;49567;48.958;8.294;2023-05-16T12:29:51;0.60;;;0.60;;
63438;SDS011;49567;48.958;8.294;2023-05-16T12:32:18;2.30;;;0.70;;
63438;SDS011;49567;48.958;8.294;2023-05-16T12:34:49;3.35;;;0.55;;
63438;SDS011;49567;48.958;8.294;2023-05-16T12:37:16;2.03;;;0.80;;
63438;SDS011;49567;48.958;8.294;2023-05-16T12:39:41;2.60;;;1.07;;
63438;SDS011;49567;48.958;8.294;2023-05-16T12:42:06;2.95;;;1.15;;
63438;SDS011;49567;48.958;8.294;2023-05-16T12:44:33;4.65;;;1.23;;
63438;SDS011;49567;48.958;8.294;2023-05-16T12:46:59;1.53;;;1.40;;
63438;SDS011;49567;48.958;8.294;2023-05-16T12:49:26;4.30;;;1.10;;
63438;SDS011;49567;48.958;8.294;2023-05-16T12:51:52;3.50;;;1.73;;
63438;SDS011;49567;48.958;8.294;2023-05-16T12:54:22;2.77;;;1.60;;
63438;SDS011;49567;48.958;8.294;2023-05-16T12:56:47;3.57;;;1.50;;
63438;SDS011;49567;48.958;8.294;2023-05-16T12:59:13;2.20;;;1.10;;
63438;SDS011;49567;48.958;8.294;2023-05-16T13:01:39;2.95;;;1.23;;
63438;SDS011;49567;48.958;8.294;2023-05-16T13:04:05;3.10;;;1.08;;
63438;SDS011;49567;48.958;8.294;2023-05-16T13:06:31;3.97;;;1.30;;
63438;SDS011;49567;48.958;8.294;2023-05-16T13:08:56;3.47;;;1.40;;
63438;SDS011;49567;48.958;8.294;2023-05-16T13:11:22;5.65;;;0.85;;
63438;SDS011;49567;48.958;8.294;2023-05-16T13:13:48;4.25;;;1.15;;
63438;SDS011;49567;48.958;8.294;2023-05-16T13:16:14;3.50;;;0.80;;
63438;SDS011;49567;48.958;8.294;2023-05-16T13:18:39;3.47;;;0.90;;
63438;SDS011;49567;48.958;8.294;2023-05-16T13:21:04;5.10;;;1.20;;
63438;SDS011;49567;48.958;8.294;2023-05-16T13:23:30;1.83;;;0.70;;
63438;SDS011;49567;48.958;8.294;2023-05-16T13:25:56;2.67;;;1.20;;
63438;SDS011;49567;48.958;8.294;2023-05-16T13:28:22;5.87;;;2.17;;
63438;SDS011;49567;48.958;8.294;2023-05-16T13:30:48;3.05;;;1.00;;
63438;SDS011;49567;48.958;8.294;2023-05-16T13:33:13;4.27;;;0.90;;
63438;SDS011;49567;48.958;8.294;2023-05-16T13:35:38;4.43;;;1.30;;
63438;SDS011;49567;48.958;8.294;2023-05-16T13:38:04;4.30;;;1.50;;
63438;SDS011;49567;48.958;8.294;2023-05-16T13:40:29;3.87;;;1.10;;
63438;SDS011;49567;48.958;8.294;2023-05-16T13:42:55;5.30;;;0.93;;
63438;SDS011;49567;48.958;8.294;2023-05-16T13:45:20;4.50;;;1.20;;
63438;SDS011;49567;48.958;8.294;2023-05-16T13:47:46;5.30;;;1.60;;
63438;SDS011;49567;48.958;8.294;2023-05-16T13:50:11;3.08;;;1.40;;
63438;SDS011;49567;48.958;8.294;2023-05-16T13:52:36;5.00;;;1.40;;
63438;SDS011;49567;48.958;8.294;2023-05-16T13:55:02;6.45;;;1.73;;
63438;SDS011;49567;48.958;8.294;2023-05-16T13:57:29;4.50;;;1.30;;
63438;SDS011;49567;48.958;8.294;2023-05-16T13:59:55;3.72;;;1.40;;
63438;SDS011;49567;48.958;8.294;2023-05-16T14:02:20;4.78;;;1.45;;
63438;SDS011;49567;48.958;8.294;2023-05-16T14:04:46;6.03;;;1.70;;
63438;SDS011;49567;48.958;8.294;2023-05-16T14:07:11;4.93;;;1.20;;
63438;SDS011;49567;48.958;8.294;2023-05-16T14:09:36;3.93;;;1.53;;
63438;SDS011;49567;48.958;8.294;2023-05-16T14:12:06;4.78;;;1.50;;
63438;SDS011;49567;48.958;8.294;2023-05-16T14:14:33;9.75;;;2.22;;
63438;SDS011;49567;48.958;8.294;2023-05-16T14:16:58;6.28;;;1.60;;
63438;SDS011;49567;48.958;8.294;2023-05-16T14:19:24;5.50;;;1.20;;
63438;SDS011;49567;48.958;8.294;2023-05-16T14:21:49;2.97;;;1.47;;
63438;SDS011;49567;48.958;8.294;2023-05-16T14:24:17;2.85;;;1.65;;
63438;SDS011;49567;48.958;8.294;2023-05-16T14:26:43;4.13;;;1.40;;
63438;SDS011;49567;48.958;8.294;2023-05-16T14:29:08;7.20;;;3.60;;
63438;SDS011;49567;48.958;8.294;2023-05-16T14:31:34;55.08;;;31.42;;
63438;SDS011;49567;48.958;8.294;2023-05-16T14:34:02;54.47;;;33.20;;
63438;SDS011;49567;48.958;8.294;2023-05-16T14:36:28;1755.50;;;455.95;;
63438;SDS011;49567;48.958;8.294;2023-05-16T14:38:53;1999.90;;;620.43;;
63438;SDS011;49567;48.958;8.294;2023-05-16T14:41:18;1999.90;;;881.67;;
63438;SDS011;49567;48.958;8.294;2023-05-16T14:43:44;1999.90;;;870.97;;